Time;durP1;ratioP1;P1;durP2;ratioP2;P2;SDS_P1;SDS_P2;PMS_P1;PMS_P2;Temp;Humidity;BMP_temperature;BMP_pressure;BME280_temperature;BME280_humidity;BME280_pressure;Samples;Min_cycle;Max_cycle;Signal;HPM_P1;HPM_P2
2023/11/08 00:01:28;;;;;;;29.50;15.50;;;;;;;6.56;83.65;98265.33;435502;1253;99224;-40
2023/11/08 00:11:32;;;;;;;29.90;17.10;;;;;;;6.71;83.65;98260.09;435293;1254;108307;-41
2023/11/08 00:21:36;;;;;;;31.60;19.90;;;;;;;6.72;83.72;98259.04;435327;1251;99236;-41
2023/11/08 00:31:40;;;;;;;30.20;15.00;;;;;;;6.74;83.94;98270.50;435320;1251;112131;-40
2023/11/08 00:41:44;;;;;;;27.80;16.00;;;;;;;6.81;84.31;98268.29;434896;1263;562306;-41
2023/11/08 00:51:48;;;;;;;27.70;16.70;;;;;;;6.80;84.51;98264.79;435357;1251;99256;-41
2023/11/08 01:11:57;;;;;;;20.60;12.40;;;;;;;6.94;84.80;98256.16;435508;1250;99215;-39
2023/11/08 01:22:02;;;;;;;19.10;9.40;;;;;;;7.07;85.03;98249.23;435495;1253;112430;-41
2023/11/08 01:32:07;;;;;;;16.00;8.90;;;;;;;7.21;85.07;98233.58;435376;1254;108204;-41
2023/11/08 01:42:11;;;;;;;11.60;8.70;;;;;;;7.30;85.26;98225.42;435404;1250;99301;-40
2023/11/08 01:52:16;;;;;;;15.80;8.60;;;;;;;7.27;85.34;98213.67;435432;1252;107633;-40
2023/11/08 02:02:20;;;;;;;14.30;8.50;;;;;;;7.18;85.11;98211.68;435349;1252;99323;-39
2023/11/08 02:12:23;;;;;;;12.30;7.30;;;;;;;7.11;85.26;98217.21;435428;1253;111814;-40
2023/11/08 02:22:27;;;;;;;12.40;7.40;;;;;;;6.98;85.13;98216.27;436257;1253;108249;-42
2023/11/08 02:32:33;;;;;;;10.90;7.10;;;;;;;6.89;85.43;98218.39;435428;1251;99173;-40
2023/11/08 02:52:42;;;;;;;15.90;8.90;;;;;;;6.87;85.84;98228.02;435650;1251;99202;-40
2023/11/08 03:02:45;;;;;;;12.10;7.60;;;;;;;6.85;85.56;98229.37;435476;1253;112979;-40
2023/11/08 03:12:51;;;;;;;11.10;6.80;;;;;;;6.88;85.52;98238.46;435339;1254;108691;-41
2023/11/08 03:22:56;;;;;;;11.50;7.40;;;;;;;6.92;85.70;98246.91;435521;1253;99240;-40
2023/11/08 03:33:00;;;;;;;17.20;9.40;;;;;;;6.96;86.01;98254.27;435572;1253;108217;-39
2023/11/08 03:43:04;;;;;;;12.60;7.20;;;;;;;6.95;86.21;98259.77;435549;1254;99237;-40
2023/11/08 03:53:07;;;;;;;12.10;7.40;;;;;;;7.00;86.18;98265.02;435591;1249;112983;-40
2023/11/08 04:03:11;;;;;;;15.40;8.50;;;;;;;7.06;85.93;98262.87;435391;1251;108187;-40
2023/11/08 04:13:14;;;;;;;13.30;8.40;;;;;;;7.09;86.07;98263.09;435480;1253;99205;-41
2023/11/08 04:23:18;;;;;;;13.80;9.30;;;;;;;7.11;86.31;98274.65;435596;1250;108544;-40
2023/11/08 04:33:22;;;;;;;12.80;8.70;;;;;;;7.05;86.15;98279.30;435513;1253;99272;-41
2023/11/08 04:43:26;;;;;;;18.20;7.90;;;;;;;7.06;86.12;98280.71;435523;1253;110949;-41
2023/11/08 04:53:30;;;;;;;11.50;7.30;;;;;;;7.13;86.01;98282.48;435417;1251;107832;-41
2023/11/08 05:03:33;;;;;;;10.70;7.30;;;;;;;7.22;86.23;98293.56;435566;1264;99330;-41
2023/11/08 05:23:41;;;;;;;14.60;9.00;;;;;;;7.19;86.22;98303.30;435512;1253;99259;-41
2023/11/08 05:33:44;;;;;;;16.80;8.90;;;;;;;7.15;86.21;98317.38;435459;1253;111113;-41
2023/11/08 05:43:49;;;;;;;11.90;7.20;;;;;;;7.22;86.03;98331.88;435385;1251;108226;-40
2023/11/08 05:53:54;;;;;;;9.50;7.00;;;;;;;7.23;86.15;98336.30;435647;1253;99284;-40
2023/11/08 06:03:59;;;;;;;12.60;7.60;;;;;;;7.17;86.46;98339.77;435611;1253;106967;-41
2023/11/08 06:14:03;;;;;;;13.70;8.80;;;;;;;7.14;86.39;98349.27;435508;1253;98557;-39
2023/11/08 06:24:07;;;;;;;11.90;7.00;;;;;;;7.12;86.37;98362.46;435612;1250;112008;-41
2023/11/08 06:44:17;;;;;;;12.40;7.30;;;;;;;7.21;86.54;98389.69;435580;1253;99241;-40
2023/11/08 06:54:23;;;;;;;13.10;7.60;;;;;;;7.17;86.77;98392.60;435561;1253;107983;-40
2023/11/08 07:04:26;;;;;;;15.00;9.60;;;;;;;7.03;86.87;98404.17;435553;1251;99090;-41
2023/11/08 07:14:30;;;;;;;9.60;7.10;;;;;;;7.00;86.90;98404.76;435473;1253;109655;-39
2023/11/08 07:34:37;;;;;;;15.50;7.70;;;;;;;7.48;87.47;98410.52;435436;1249;99135;-41
2023/11/08 07:44:40;;;;;;;11.90;9.10;;;;;;;7.84;87.89;98409.39;435610;1251;108129;-41
2023/11/08 07:54:44;;;;;;;12.20;10.00;;;;;;;9.36;89.45;98403.14;435514;1251;98819;-40
2023/11/08 08:04:48;;;;;;;14.00;9.20;;;;;;;11.12;88.49;98411.15;435681;1253;111798;-40
2023/11/08 08:24:55;;;;;;;8.70;5.40;;;;;;;11.77;85.46;98419.59;435581;1251;97972;-42
2023/11/08 08:34:58;;;;;;;8.50;5.70;;;;;;;10.60;83.74;98433.85;435506;1253;108960;-41
2023/11/08 08:45:06;;;;;;;8.20;6.60;;;;;;;9.95;83.95;98435.83;435579;1251;97918;-41
2023/11/08 09:05:13;;;;;;;5.40;4.80;;;;;;;10.26;84.23;98442.27;435467;1253;108090;-41
2023/11/08 09:15:17;;;;;;;5.30;4.00;;;;;;;10.78;83.93;98449.21;435477;1251;98810;-41
2023/11/08 09:25:21;;;;;;;4.20;3.80;;;;;;;10.90;82.97;98451.56;435396;1253;108719;-40
2023/11/08 09:45:31;;;;;;;4.50;3.50;;;;;;;10.87;82.45;98435.73;435585;1253;111786;-40
2023/11/08 09:55:35;;;;;;;4.40;3.00;;;;;;;11.00;81.63;98431.80;435458;1251;109104;-41
2023/11/08 10:05:38;;;;;;;5.50;3.00;;;;;;;10.83;80.98;98436.24;435577;1251;99231;-41
2023/11/08 10:15:46;;;;;;;4.00;2.60;;;;;;;10.86;79.92;98431.33;435660;1253;108351;-41
2023/11/08 10:25:49;;;;;;;4.30;2.20;;;;;;;11.03;79.72;98423.45;435525;1251;99212;-42
2023/11/08 10:45:55;;;;;;;4.30;2.40;;;;;;;11.15;78.02;98418.83;435440;1253;108544;-43
2023/11/08 11:06:05;;;;;;;11.30;2.80;;;;;;;10.77;76.90;98411.39;435392;1251;108966;-41
2023/11/08 11:16:14;;;;;;;2.50;1.80;;;;;;;10.59;76.20;98399.89;435488;1251;98023;-41
2023/11/08 11:26:48;;;;;;;3.50;2.40;;;;;;;10.71;76.51;98397.52;435495;1251;111581;-41
2023/11/08 11:47:14;;;;;;;4.90;2.50;;;;;;;10.67;75.84;98391.46;435459;1251;99482;-41
2023/11/08 11:57:22;;;;;;;9.60;3.20;;;;;;;10.53;75.52;98387.55;435366;1249;108627;-42
2023/11/08 12:07:26;;;;;;;7.90;2.30;;;;;;;10.55;75.40;98397.44;435407;1249;97975;-40
2023/11/08 12:17:30;;;;;;;6.60;2.50;;;;;;;10.32;75.29;98402.83;435518;1251;109786;-40
2023/11/08 12:27:33;;;;;;;3.40;1.50;;;;;;;10.04;74.97;98397.98;435430;1253;108611;-39
2023/11/08 12:37:36;;;;;;;2.20;1.50;;;;;;;9.88;75.13;98392.66;435625;1253;98004;-39
2023/11/08 12:57:43;;;;;;;4.40;1.70;;;;;;;9.63;75.39;98395.05;435447;1253;99206;-41
2023/11/08 13:07:47;;;;;;;4.20;1.80;;;;;;;9.61;75.44;98387.88;435736;1253;111802;-40
2023/11/08 13:17:50;;;;;;;9.10;1.90;;;;;;;9.74;75.37;98395.26;435463;1250;108159;-41
2023/11/08 13:27:53;;;;;;;4.80;1.90;;;;;;;9.75;75.26;98389.66;435471;1249;99260;-41
2023/11/08 13:58:16;;;;;;;7.50;3.00;;;;;;;9.76;75.30;98399.02;435421;1254;111687;-41
2023/11/08 14:08:33;;;;;;;4.80;2.10;;;;;;;9.65;74.58;98410.73;435424;1253;109519;-42
2023/11/08 14:18:36;;;;;;;10.20;3.20;;;;;;;9.50;74.63;98421.27;435524;1253;99240;-40
2023/11/08 14:50:01;;;;;;;5.10;2.30;;;;;;;9.13;75.23;98425.39;435436;1253;110638;-41
2023/11/08 15:00:06;;;;;;;16.00;5.80;;;;;;;8.88;75.83;98440.31;435465;1253;107805;-40
2023/11/08 15:10:11;;;;;;;8.40;3.50;;;;;;;8.57;76.22;98452.20;435551;1251;98008;-41
2023/11/08 15:30:19;;;;;;;15.50;7.30;;;;;;;8.12;77.33;98456.36;435278;1253;99218;-40
2023/11/08 15:40:23;;;;;;;43.80;19.70;;;;;;;8.13;77.85;98458.70;435462;1253;112138;-40
2023/11/08 15:50:27;;;;;;;43.70;27.40;;;;;;;7.97;78.40;98460.31;435407;1253;108646;-41
2023/11/08 16:00:33;;;;;;;15.90;8.60;;;;;;;7.77;78.92;98456.80;435544;1254;97979;-39
2023/11/08 16:20:41;;;;;;;12.00;7.10;;;;;;;7.64;79.63;98465.27;435513;1251;99218;-41
2023/11/08 16:30:46;;;;;;;19.70;10.40;;;;;;;7.64;79.97;98469.14;435380;1253;112110;-40
2023/11/08 16:41:11;;;;;;;32.50;19.70;;;;;;;7.59;80.31;98467.67;435434;1263;108543;-40
2023/11/08 16:51:15;;;;;;;24.00;15.20;;;;;;;7.52;80.71;98479.91;435367;1251;99211;-40
2023/11/08 17:31:32;;;;;;;36.80;19.90;;;;;;;7.22;81.76;98497.79;435309;1253;108175;-42
2023/11/08 18:01:43;;;;;;;45.30;21.80;;;;;;;7.14;82.06;98509.94;435450;1263;97995;-40
2023/11/08 18:11:47;;;;;;;30.40;16.00;;;;;;;7.14;82.21;98506.26;435348;1251;111817;-42
2023/11/08 18:31:54;;;;;;;36.80;19.10;;;;;;;6.98;82.51;98520.56;435280;1251;99233;-40
2023/11/08 18:41:59;;;;;;;30.60;16.90;;;;;;;6.91;82.55;98525.94;435283;1263;107895;-41
2023/11/08 18:52:04;;;;;;;27.00;16.30;;;;;;;6.85;82.50;98523.61;435292;1252;99215;-41
2023/11/08 19:02:08;;;;;;;27.80;13.90;;;;;;;6.78;82.67;98527.51;435145;1254;112730;-40
2023/11/08 19:12:11;;;;;;;25.90;14.70;;;;;;;6.76;83.10;98538.95;435242;1263;108461;-41
2023/11/08 19:22:15;;;;;;;19.40;12.90;;;;;;;6.72;83.15;98545.11;435356;1253;99237;-40
2023/11/08 19:42:23;;;;;;;21.30;10.30;;;;;;;6.86;83.21;98550.73;435357;1254;98933;-41
2023/11/08 19:52:26;;;;;;;19.00;10.30;;;;;;;6.97;83.27;98554.73;435542;1251;110886;-40
2023/11/08 20:02:30;;;;;;;30.70;16.80;;;;;;;6.96;83.17;98559.02;435387;1254;108946;-41
2023/11/08 20:12:34;;;;;;;34.20;19.10;;;;;;;6.93;83.35;98558.08;435646;1253;99215;-40
2023/11/08 20:22:38;;;;;;;19.50;10.20;;;;;;;7.05;83.23;98551.30;435204;1262;108380;-41
2023/11/08 20:42:47;;;;;;;20.20;11.00;;;;;;;7.11;83.15;98549.22;435409;1253;110818;-40
2023/11/08 20:52:51;;;;;;;21.30;8.30;;;;;;;6.94;82.93;98556.29;435504;1254;107944;-41
2023/11/08 21:02:54;;;;;;;13.00;7.00;;;;;;;6.86;82.78;98553.69;435419;1254;98804;-41
2023/11/08 21:12:59;;;;;;;24.00;9.30;;;;;;;6.83;82.89;98548.67;435366;1254;107368;-40
2023/11/08 21:23:02;;;;;;;23.00;9.90;;;;;;;6.83;82.88;98543.77;435368;1253;99347;-41
2023/11/08 21:33:06;;;;;;;20.30;11.70;;;;;;;6.73;83.01;98549.80;435450;1263;112164;-41
2023/11/08 21:43:10;;;;;;;43.60;20.50;;;;;;;6.47;82.77;98547.20;435276;1253;107669;-40
2023/11/08 21:53:14;;;;;;;38.70;18.70;;;;;;;6.21;82.80;98544.41;435302;1254;97976;-40
2023/11/08 22:03:18;;;;;;;34.70;21.60;;;;;;;6.05;82.88;98547.39;435428;1251;108427;-41
2023/11/08 22:13:22;;;;;;;32.90;18.00;;;;;;;5.99;83.16;98546.36;435395;1251;99228;-39
2023/11/08 22:23:25;;;;;;;33.80;17.50;;;;;;;5.98;83.41;98544.86;435502;1251;111469;-41
2023/11/08 22:33:28;;;;;;;38.50;20.00;;;;;;;5.99;83.78;98543.33;435327;1264;108658;-41
2023/11/08 22:43:32;;;;;;;27.50;16.10;;;;;;;6.00;83.54;98535.50;435520;1254;97997;-41
2023/11/08 22:53:35;;;;;;;29.80;16.30;;;;;;;5.89;83.32;98537.69;435524;1254;107620;-41
2023/11/08 23:03:39;;;;;;;26.80;13.20;;;;;;;5.76;83.48;98538.48;435482;1263;98836;-40
2023/11/08 23:23:45;;;;;;;36.70;20.00;;;;;;;5.31;83.67;98528.43;435520;1254;108418;-41
2023/11/08 23:33:49;;;;;;;34.80;19.70;;;;;;;5.10;83.79;98525.76;435484;1253;99215;-41
2023/11/08 23:43:53;;;;;;;27.30;16.70;;;;;;;4.99;83.74;98517.74;435411;1253;107768;-41
2023/11/08 23:53:56;;;;;;;29.50;15.50;;;;;;;4.93;84.11;98513.96;435532;1251;99024;-41
